sensor_id;sensor_type;location;lat;lon;timestamp;pressure;altitude;pressure_sealevel;temperature;humidity
26436;BME280;15351;52.408;16.826;2023-07-13T00:00:08;100359.15;;;20.92;57.64
26436;BME280;15351;52.408;16.826;2023-07-13T00:03:01;100361.42;;;20.91;57.68
26436;BME280;15351;52.408;16.826;2023-07-13T00:05:27;100362.52;;;20.87;58.02
26436;BME280;15351;52.408;16.826;2023-07-13T00:07:56;100366.84;;;20.84;58.05
26436;BME280;15351;52.408;16.826;2023-07-13T00:10:22;100364.92;;;20.80;58.12
26436;BME280;15351;52.408;16.826;2023-07-13T00:12:49;100363.58;;;20.76;58.40
26436;BME280;15351;52.408;16.826;2023-07-13T00:15:20;100373.42;;;20.75;58.44
26436;BME280;15351;52.408;16.826;2023-07-13T00:17:53;100377.98;;;20.75;58.83
26436;BME280;15351;52.408;16.826;2023-07-13T00:20:33;100386.46;;;20.74;58.91
26436;BME280;15351;52.408;16.826;2023-07-13T00:23:00;100394.20;;;20.71;59.13
26436;BME280;15351;52.408;16.826;2023-07-13T00:25:27;100397.30;;;20.70;59.20
26436;BME280;15351;52.408;16.826;2023-07-13T00:27:56;100406.25;;;20.68;59.12
26436;BME280;15351;52.408;16.826;2023-07-13T00:30:23;100415.16;;;20.65;59.50
26436;BME280;15351;52.408;16.826;2023-07-13T00:32:50;100411.08;;;20.62;59.66
26436;BME280;15351;52.408;16.826;2023-07-13T00:35:17;100398.20;;;20.60;59.73
26436;BME280;15351;52.408;16.826;2023-07-13T00:37:43;100394.02;;;20.61;59.74
26436;BME280;15351;52.408;16.826;2023-07-13T00:40:11;100388.19;;;20.61;59.89
26436;BME280;15351;52.408;16.826;2023-07-13T00:42:39;100390.44;;;20.61;60.05
26436;BME280;15351;52.408;16.826;2023-07-13T00:47:41;100380.83;;;20.58;60.18
26436;BME280;15351;52.408;16.826;2023-07-13T00:50:16;100378.33;;;20.57;60.24
26436;BME280;15351;52.408;16.826;2023-07-13T00:52:47;100372.96;;;20.57;60.33
26436;BME280;15351;52.408;16.826;2023-07-13T00:55:15;100372.95;;;20.58;60.46
26436;BME280;15351;52.408;16.826;2023-07-13T00:57:43;100373.48;;;20.60;60.46
26436;BME280;15351;52.408;16.826;2023-07-13T01:00:11;100375.69;;;20.61;60.79
26436;BME280;15351;52.408;16.826;2023-07-13T01:02:42;100371.63;;;20.61;60.76
26436;BME280;15351;52.408;16.826;2023-07-13T01:05:18;100373.95;;;20.62;60.79
26436;BME280;15351;52.408;16.826;2023-07-13T01:07:49;100381.63;;;20.64;60.79
26436;BME280;15351;52.408;16.826;2023-07-13T01:10:26;100390.08;;;20.64;61.03
26436;BME280;15351;52.408;16.826;2023-07-13T01:12:54;100389.63;;;20.66;61.22
26436;BME280;15351;52.408;16.826;2023-07-13T01:15:39;100389.94;;;20.67;61.17
26436;BME280;15351;52.408;16.826;2023-07-13T01:18:11;100391.84;;;20.69;61.33
26436;BME280;15351;52.408;16.826;2023-07-13T01:20:51;100392.12;;;20.72;61.60
26436;BME280;15351;52.408;16.826;2023-07-13T01:23:19;100387.42;;;20.76;61.94
26436;BME280;15351;52.408;16.826;2023-07-13T01:25:48;100389.69;;;20.79;61.98
26436;BME280;15351;52.408;16.826;2023-07-13T01:28:16;100397.86;;;20.83;62.02
26436;BME280;15351;52.408;16.826;2023-07-13T01:30:44;100395.44;;;20.85;62.35
26436;BME280;15351;52.408;16.826;2023-07-13T01:33:14;100395.30;;;20.86;62.21
26436;BME280;15351;52.408;16.826;2023-07-13T01:35:46;100393.43;;;20.86;62.05
26436;BME280;15351;52.408;16.826;2023-07-13T01:38:15;100392.11;;;20.89;62.07
26436;BME280;15351;52.408;16.826;2023-07-13T01:40:43;100391.34;;;20.91;62.11
26436;BME280;15351;52.408;16.826;2023-07-13T01:43:10;100395.98;;;20.93;62.01
26436;BME280;15351;52.408;16.826;2023-07-13T01:45:36;100391.76;;;20.93;62.06
26436;BME280;15351;52.408;16.826;2023-07-13T01:48:04;100389.35;;;20.91;62.04
26436;BME280;15351;52.408;16.826;2023-07-13T01:50:33;100387.12;;;20.91;62.04
26436;BME280;15351;52.408;16.826;2023-07-13T01:53:00;100385.73;;;20.91;61.97
26436;BME280;15351;52.408;16.826;2023-07-13T01:55:29;100390.12;;;20.91;61.57
26436;BME280;15351;52.408;16.826;2023-07-13T01:57:56;100386.30;;;20.92;61.44
26436;BME280;15351;52.408;16.826;2023-07-13T02:00:23;100379.22;;;20.91;61.05
26436;BME280;15351;52.408;16.826;2023-07-13T02:02:51;100377.02;;;20.91;60.76
26436;BME280;15351;52.408;16.826;2023-07-13T02:05:18;100379.10;;;20.91;60.68
26436;BME280;15351;52.408;16.826;2023-07-13T02:07:46;100379.80;;;20.90;60.36
26436;BME280;15351;52.408;16.826;2023-07-13T02:10:14;100383.04;;;20.90;60.13
26436;BME280;15351;52.408;16.826;2023-07-13T02:12:42;100379.89;;;20.89;60.24
26436;BME280;15351;52.408;16.826;2023-07-13T02:15:09;100379.27;;;20.89;60.42
26436;BME280;15351;52.408;16.826;2023-07-13T02:17:36;100377.56;;;20.88;60.39
26436;BME280;15351;52.408;16.826;2023-07-13T02:20:04;100379.92;;;20.88;60.14
26436;BME280;15351;52.408;16.826;2023-07-13T02:22:32;100377.77;;;20.90;60.00
26436;BME280;15351;52.408;16.826;2023-07-13T02:24:58;100380.41;;;20.91;59.73
26436;BME280;15351;52.408;16.826;2023-07-13T02:27:25;100378.62;;;20.92;59.37
26436;BME280;15351;52.408;16.826;2023-07-13T02:29:52;100379.13;;;20.92;59.17
26436;BME280;15351;52.408;16.826;2023-07-13T02:32:22;100383.83;;;20.91;59.14
26436;BME280;15351;52.408;16.826;2023-07-13T02:34:51;100387.64;;;20.90;59.41
26436;BME280;15351;52.408;16.826;2023-07-13T02:37:20;100384.33;;;20.89;59.41
26436;BME280;15351;52.408;16.826;2023-07-13T02:39:49;100392.57;;;20.87;59.27
26436;BME280;15351;52.408;16.826;2023-07-13T02:42:16;100393.44;;;20.86;59.44
26436;BME280;15351;52.408;16.826;2023-07-13T02:44:50;100392.91;;;20.85;59.51
26436;BME280;15351;52.408;16.826;2023-07-13T02:47:18;100397.74;;;20.82;59.55
26436;BME280;15351;52.408;16.826;2023-07-13T02:49:45;100402.19;;;20.83;59.59
26436;BME280;15351;52.408;16.826;2023-07-13T02:52:11;100402.78;;;20.85;59.92
26436;BME280;15351;52.408;16.826;2023-07-13T02:54:38;100409.15;;;20.87;59.91
26436;BME280;15351;52.408;16.826;2023-07-13T02:57:05;100405.46;;;20.90;59.78
26436;BME280;15351;52.408;16.826;2023-07-13T02:59:34;100404.32;;;20.90;59.90
26436;BME280;15351;52.408;16.826;2023-07-13T03:02:02;100404.87;;;20.90;59.76
26436;BME280;15351;52.408;16.826;2023-07-13T03:04:29;100394.91;;;20.89;60.01
26436;BME280;15351;52.408;16.826;2023-07-13T03:06:56;100394.70;;;20.90;60.05
26436;BME280;15351;52.408;16.826;2023-07-13T03:09:24;100403.30;;;20.88;60.28
26436;BME280;15351;52.408;16.826;2023-07-13T03:11:53;100403.13;;;20.88;60.28
26436;BME280;15351;52.408;16.826;2023-07-13T03:14:25;100398.20;;;20.88;60.41
26436;BME280;15351;52.408;16.826;2023-07-13T03:16:54;100385.45;;;20.90;60.64
26436;BME280;15351;52.408;16.826;2023-07-13T03:19:25;100385.92;;;20.92;60.85
26436;BME280;15351;52.408;16.826;2023-07-13T03:21:56;100394.38;;;20.92;60.86
26436;BME280;15351;52.408;16.826;2023-07-13T03:24:24;100402.10;;;20.91;60.84
26436;BME280;15351;52.408;16.826;2023-07-13T03:26:54;100401.66;;;20.92;61.13
26436;BME280;15351;52.408;16.826;2023-07-13T03:29:28;100403.15;;;20.95;61.21
26436;BME280;15351;52.408;16.826;2023-07-13T03:31:55;100392.73;;;20.97;61.26
26436;BME280;15351;52.408;16.826;2023-07-13T03:34:22;100391.79;;;20.99;61.22
26436;BME280;15351;52.408;16.826;2023-07-13T03:36:49;100390.54;;;20.99;61.62
26436;BME280;15351;52.408;16.826;2023-07-13T03:39:15;100394.23;;;21.00;61.73
26436;BME280;15351;52.408;16.826;2023-07-13T03:41:47;100389.13;;;21.00;62.15
26436;BME280;15351;52.408;16.826;2023-07-13T03:44:16;100392.73;;;21.02;62.56
26436;BME280;15351;52.408;16.826;2023-07-13T03:46:43;100393.46;;;21.02;62.76
26436;BME280;15351;52.408;16.826;2023-07-13T03:49:10;100401.07;;;21.04;62.96
26436;BME280;15351;52.408;16.826;2023-07-13T03:51:40;100410.00;;;21.06;63.19
26436;BME280;15351;52.408;16.826;2023-07-13T03:54:06;100413.63;;;21.09;63.68
26436;BME280;15351;52.408;16.826;2023-07-13T03:56:33;100416.47;;;21.10;64.22
26436;BME280;15351;52.408;16.826;2023-07-13T03:59:01;100421.30;;;21.12;64.52
26436;BME280;15351;52.408;16.826;2023-07-13T04:01:30;100422.17;;;21.12;64.65
26436;BME280;15351;52.408;16.826;2023-07-13T04:03:57;100426.87;;;21.14;64.47
26436;BME280;15351;52.408;16.826;2023-07-13T04:06:27;100428.88;;;21.15;64.63
26436;BME280;15351;52.408;16.826;2023-07-13T04:08:57;100438.31;;;21.16;64.24
26436;BME280;15351;52.408;16.826;2023-07-13T04:11:27;100437.56;;;21.16;64.65
26436;BME280;15351;52.408;16.826;2023-07-13T04:13:55;100429.96;;;21.17;64.94
26436;BME280;15351;52.408;16.826;2023-07-13T04:16:22;100425.19;;;21.20;65.10
26436;BME280;15351;52.408;16.826;2023-07-13T04:18:50;100421.83;;;21.24;65.51
26436;BME280;15351;52.408;16.826;2023-07-13T04:21:20;100423.94;;;21.25;65.75
26436;BME280;15351;52.408;16.826;2023-07-13T04:23:49;100423.16;;;21.27;65.95
26436;BME280;15351;52.408;16.826;2023-07-13T04:26:20;100430.25;;;21.29;66.08
26436;BME280;15351;52.408;16.826;2023-07-13T04:28:49;100432.13;;;21.29;66.14
26436;BME280;15351;52.408;16.826;2023-07-13T04:31:24;100434.40;;;21.31;66.29
26436;BME280;15351;52.408;16.826;2023-07-13T04:33:50;100435.32;;;21.36;66.64
26436;BME280;15351;52.408;16.826;2023-07-13T04:36:17;100436.23;;;21.43;67.02
26436;BME280;15351;52.408;16.826;2023-07-13T04:38:46;100435.05;;;21.46;67.01
26436;BME280;15351;52.408;16.826;2023-07-13T04:41:14;100436.96;;;21.48;67.15
26436;BME280;15351;52.408;16.826;2023-07-13T04:43:43;100441.70;;;21.49;67.13
26436;BME280;15351;52.408;16.826;2023-07-13T04:46:12;100444.94;;;21.55;67.23
26436;BME280;15351;52.408;16.826;2023-07-13T04:48:39;100444.21;;;21.62;67.19
26436;BME280;15351;52.408;16.826;2023-07-13T04:51:07;100444.44;;;21.68;67.20
26436;BME280;15351;52.408;16.826;2023-07-13T04:53:33;100442.92;;;21.73;67.32
26436;BME280;15351;52.408;16.826;2023-07-13T04:56:00;100446.35;;;21.75;67.14
26436;BME280;15351;52.408;16.826;2023-07-13T04:58:28;100445.23;;;21.78;67.21
26436;BME280;15351;52.408;16.826;2023-07-13T05:01:05;100443.64;;;21.81;67.14
26436;BME280;15351;52.408;16.826;2023-07-13T05:03:32;100446.92;;;21.83;67.39
26436;BME280;15351;52.408;16.826;2023-07-13T05:06:03;100452.70;;;21.87;67.33
26436;BME280;15351;52.408;16.826;2023-07-13T05:08:30;100456.88;;;21.89;67.26
26436;BME280;15351;52.408;16.826;2023-07-13T05:10:56;100463.83;;;21.91;67.17
26436;BME280;15351;52.408;16.826;2023-07-13T05:13:25;100468.39;;;21.92;67.08
26436;BME280;15351;52.408;16.826;2023-07-13T05:16:02;100469.09;;;21.94;67.19
26436;BME280;15351;52.408;16.826;2023-07-13T05:18:32;100469.92;;;21.97;67.28
26436;BME280;15351;52.408;16.826;2023-07-13T05:21:00;100471.38;;;21.98;66.98
26436;BME280;15351;52.408;16.826;2023-07-13T05:23:28;100469.44;;;21.97;66.70
26436;BME280;15351;52.408;16.826;2023-07-13T05:25:55;100473.22;;;22.00;66.77
26436;BME280;15351;52.408;16.826;2023-07-13T05:28:22;100473.68;;;22.01;66.91
26436;BME280;15351;52.408;16.826;2023-07-13T05:30:52;100475.19;;;22.02;67.12
26436;BME280;15351;52.408;16.826;2023-07-13T05:33:21;100481.19;;;22.02;66.93
26436;BME280;15351;52.408;16.826;2023-07-13T05:35:55;100487.30;;;22.03;66.85
26436;BME280;15351;52.408;16.826;2023-07-13T05:38:24;100493.58;;;22.04;67.04
26436;BME280;15351;52.408;16.826;2023-07-13T05:40:51;100493.02;;;22.03;66.90
26436;BME280;15351;52.408;16.826;2023-07-13T05:43:17;100499.55;;;22.02;67.06
26436;BME280;15351;52.408;16.826;2023-07-13T05:45:46;100501.48;;;22.03;67.15
26436;BME280;15351;52.408;16.826;2023-07-13T05:48:13;100505.91;;;22.04;67.39
26436;BME280;15351;52.408;16.826;2023-07-13T05:50:40;100512.52;;;22.07;67.63
26436;BME280;15351;52.408;16.826;2023-07-13T05:53:06;100515.45;;;22.08;67.60
26436;BME280;15351;52.408;16.826;2023-07-13T05:55:33;100516.20;;;22.07;67.55
26436;BME280;15351;52.408;16.826;2023-07-13T05:58:00;100514.60;;;22.07;67.56
26436;BME280;15351;52.408;16.826;2023-07-13T06:00:30;100518.35;;;22.07;67.70
26436;BME280;15351;52.408;16.826;2023-07-13T06:02:57;100520.42;;;22.09;67.84
26436;BME280;15351;52.408;16.826;2023-07-13T06:05:25;100529.61;;;22.10;67.92
26436;BME280;15351;52.408;16.826;2023-07-13T06:07:57;100533.41;;;22.10;67.75
26436;BME280;15351;52.408;16.826;2023-07-13T06:10:24;100532.00;;;22.11;67.79
26436;BME280;15351;52.408;16.826;2023-07-13T06:12:50;100538.48;;;22.14;68.07
26436;BME280;15351;52.408;16.826;2023-07-13T06:15:17;100535.05;;;22.16;68.08
26436;BME280;15351;52.408;16.826;2023-07-13T06:17:45;100547.20;;;22.19;68.31
26436;BME280;15351;52.408;16.826;2023-07-13T06:20:13;100552.21;;;22.22;68.31
26436;BME280;15351;52.408;16.826;2023-07-13T06:22:40;100553.80;;;22.23;68.24
26436;BME280;15351;52.408;16.826;2023-07-13T06:25:07;100555.63;;;22.24;68.14
26436;BME280;15351;52.408;16.826;2023-07-13T06:27:34;100553.20;;;22.27;68.41
26436;BME280;15351;52.408;16.826;2023-07-13T06:30:00;100551.28;;;22.28;68.32
26436;BME280;15351;52.408;16.826;2023-07-13T06:32:27;100550.21;;;22.29;68.36
26436;BME280;15351;52.408;16.826;2023-07-13T06:34:54;100552.01;;;22.35;68.58
26436;BME280;15351;52.408;16.826;2023-07-13T06:37:20;100558.40;;;22.39;68.75
26436;BME280;15351;52.408;16.826;2023-07-13T06:39:46;100560.11;;;22.43;68.59
26436;BME280;15351;52.408;16.826;2023-07-13T06:42:12;100561.83;;;22.47;68.63
26436;BME280;15351;52.408;16.826;2023-07-13T06:44:43;100561.42;;;22.50;68.50
26436;BME280;15351;52.408;16.826;2023-07-13T06:47:11;100563.55;;;22.57;68.40
26436;BME280;15351;52.408;16.826;2023-07-13T06:49:37;100560.56;;;22.59;68.00
26436;BME280;15351;52.408;16.826;2023-07-13T06:52:05;100559.62;;;22.62;67.85
26436;BME280;15351;52.408;16.826;2023-07-13T06:54:33;100561.48;;;22.65;67.81
26436;BME280;15351;52.408;16.826;2023-07-13T06:57:01;100555.07;;;22.68;68.08
26436;BME280;15351;52.408;16.826;2023-07-13T07:00:09;100550.86;;;22.71;68.22
26436;BME280;15351;52.408;16.826;2023-07-13T07:02:36;100556.42;;;22.79;68.44
26436;BME280;15351;52.408;16.826;2023-07-13T07:05:04;100561.15;;;22.91;68.52
26436;BME280;15351;52.408;16.826;2023-07-13T07:07:32;100563.79;;;23.01;68.08
26436;BME280;15351;52.408;16.826;2023-07-13T07:09:59;100567.93;;;23.09;67.54
26436;BME280;15351;52.408;16.826;2023-07-13T07:12:26;100564.80;;;23.20;67.20
26436;BME280;15351;52.408;16.826;2023-07-13T07:14:52;100559.61;;;23.29;67.01
26436;BME280;15351;52.408;16.826;2023-07-13T07:17:19;100561.48;;;23.39;66.92
26436;BME280;15351;52.408;16.826;2023-07-13T07:19:46;100561.75;;;23.49;67.13
26436;BME280;15351;52.408;16.826;2023-07-13T07:22:12;100563.26;;;23.67;67.21
26436;BME280;15351;52.408;16.826;2023-07-13T07:24:40;100558.09;;;23.84;66.57
26436;BME280;15351;52.408;16.826;2023-07-13T07:27:08;100554.33;;;24.00;66.23
26436;BME280;15351;52.408;16.826;2023-07-13T07:29:34;100552.84;;;24.17;65.62
26436;BME280;15351;52.408;16.826;2023-07-13T07:32:01;100550.56;;;24.31;65.19
26436;BME280;15351;52.408;16.826;2023-07-13T07:34:29;100547.31;;;24.47;64.97
26436;BME280;15351;52.408;16.826;2023-07-13T07:37:00;100543.53;;;24.65;64.55
26436;BME280;15351;52.408;16.826;2023-07-13T07:39:27;100545.20;;;24.83;64.15
26436;BME280;15351;52.408;16.826;2023-07-13T07:41:54;100542.40;;;24.98;63.21
26436;BME280;15351;52.408;16.826;2023-07-13T07:44:22;100546.65;;;25.11;62.48
26436;BME280;15351;52.408;16.826;2023-07-13T07:46:51;100553.89;;;25.19;61.63
26436;BME280;15351;52.408;16.826;2023-07-13T07:49:18;100550.61;;;25.25;61.00
26436;BME280;15351;52.408;16.826;2023-07-13T07:51:44;100546.90;;;25.37;60.64
26436;BME280;15351;52.408;16.826;2023-07-13T07:54:11;100550.09;;;25.50;60.33
26436;BME280;15351;52.408;16.826;2023-07-13T07:56:37;100552.42;;;25.64;59.55
26436;BME280;15351;52.408;16.826;2023-07-13T07:59:03;100555.70;;;25.78;59.08
26436;BME280;15351;52.408;16.826;2023-07-13T08:01:37;100560.57;;;25.90;58.52
26436;BME280;15351;52.408;16.826;2023-07-13T08:04:05;100561.33;;;26.04;57.82
26436;BME280;15351;52.408;16.826;2023-07-13T08:06:34;100563.64;;;26.15;57.33
26436;BME280;15351;52.408;16.826;2023-07-13T08:09:05;100567.48;;;26.26;57.20
26436;BME280;15351;52.408;16.826;2023-07-13T08:11:32;100569.00;;;26.32;56.26
26436;BME280;15351;52.408;16.826;2023-07-13T08:13:59;100566.14;;;26.40;55.74
26436;BME280;15351;52.408;16.826;2023-07-13T08:16:27;100565.66;;;26.50;55.97
26436;BME280;15351;52.408;16.826;2023-07-13T08:18:59;100561.59;;;26.57;55.00
26436;BME280;15351;52.408;16.826;2023-07-13T08:21:26;100559.30;;;26.61;55.21
26436;BME280;15351;52.408;16.826;2023-07-13T08:23:58;100562.23;;;26.61;54.27
26436;BME280;15351;52.408;16.826;2023-07-13T08:26:32;100561.41;;;26.55;54.09
26436;BME280;15351;52.408;16.826;2023-07-13T08:29:02;100567.22;;;26.50;54.06
26436;BME280;15351;52.408;16.826;2023-07-13T08:31:30;100562.48;;;26.42;53.39
26436;BME280;15351;52.408;16.826;2023-07-13T08:33:57;100562.09;;;26.32;52.97
26436;BME280;15351;52.408;16.826;2023-07-13T08:36:25;100555.13;;;26.19;52.59
26436;BME280;15351;52.408;16.826;2023-07-13T08:38:56;100567.42;;;26.05;52.54
26436;BME280;15351;52.408;16.826;2023-07-13T08:41:22;100571.60;;;25.94;52.64
26436;BME280;15351;52.408;16.826;2023-07-13T08:43:52;100571.34;;;25.87;53.20
26436;BME280;15351;52.408;16.826;2023-07-13T08:46:37;100571.39;;;25.83;53.33
26436;BME280;15351;52.408;16.826;2023-07-13T08:49:09;100574.55;;;25.75;52.96
26436;BME280;15351;52.408;16.826;2023-07-13T08:51:48;100567.42;;;25.64;53.33
26436;BME280;15351;52.408;16.826;2023-07-13T08:54:24;100568.77;;;25.59;54.05
26436;BME280;15351;52.408;16.826;2023-07-13T08:56:53;100555.59;;;25.54;54.08
26436;BME280;15351;52.408;16.826;2023-07-13T08:59:28;100552.31;;;25.44;53.73
26436;BME280;15351;52.408;16.826;2023-07-13T09:02:25;100556.75;;;25.36;54.16
26436;BME280;15351;52.408;16.826;2023-07-13T09:05:08;100557.98;;;25.32;54.98
26436;BME280;15351;52.408;16.826;2023-07-13T09:07:57;100560.25;;;25.29;54.91
26436;BME280;15351;52.408;16.826;2023-07-13T09:13:05;100565.90;;;25.22;55.50
26436;BME280;15351;52.408;16.826;2023-07-13T09:15:40;100566.90;;;25.23;55.34
26436;BME280;15351;52.408;16.826;2023-07-13T09:18:16;100567.36;;;25.24;55.31
26436;BME280;15351;52.408;16.826;2023-07-13T09:20:53;100568.42;;;25.28;55.68
26436;BME280;15351;52.408;16.826;2023-07-13T09:23:23;100568.02;;;25.33;55.59
26436;BME280;15351;52.408;16.826;2023-07-13T09:26:00;100563.63;;;25.34;55.61
26436;BME280;15351;52.408;16.826;2023-07-13T09:28:29;100567.54;;;25.38;55.29
26436;BME280;15351;52.408;16.826;2023-07-13T09:31:09;100569.48;;;25.39;55.25
26436;BME280;15351;52.408;16.826;2023-07-13T09:33:40;100568.95;;;25.45;55.34
26436;BME280;15351;52.408;16.826;2023-07-13T09:36:33;100567.17;;;25.60;55.70
26436;BME280;15351;52.408;16.826;2023-07-13T09:41:53;100560.13;;;26.09;56.58
26436;BME280;15351;52.408;16.826;2023-07-13T09:44:56;100559.70;;;26.33;56.34
26436;BME280;15351;52.408;16.826;2023-07-13T09:47:29;100561.77;;;26.57;56.15
26436;BME280;15351;52.408;16.826;2023-07-13T09:50:09;100559.14;;;26.75;55.01
26436;BME280;15351;52.408;16.826;2023-07-13T09:52:47;100561.48;;;26.93;55.03
26436;BME280;15351;52.408;16.826;2023-07-13T09:58:18;100560.27;;;27.18;53.76
26436;BME280;15351;52.408;16.826;2023-07-13T10:00:57;100557.34;;;27.25;52.92
26436;BME280;15351;52.408;16.826;2023-07-13T10:03:27;100559.54;;;27.34;52.75
26436;BME280;15351;52.408;16.826;2023-07-13T10:05:54;100565.73;;;27.46;52.49
26436;BME280;15351;52.408;16.826;2023-07-13T10:08:28;100571.16;;;27.45;51.11
26436;BME280;15351;52.408;16.826;2023-07-13T10:11:00;100569.02;;;27.39;50.32
26436;BME280;15351;52.408;16.826;2023-07-13T10:13:30;100573.23;;;27.29;49.87
26436;BME280;15351;52.408;16.826;2023-07-13T10:15:58;100575.55;;;27.16;49.98
26436;BME280;15351;52.408;16.826;2023-07-13T10:18:27;100577.33;;;27.14;50.28
26436;BME280;15351;52.408;16.826;2023-07-13T10:21:10;100578.88;;;27.30;51.43
26436;BME280;15351;52.408;16.826;2023-07-13T10:23:38;100573.33;;;27.47;51.70
26436;BME280;15351;52.408;16.826;2023-07-13T10:26:12;100571.48;;;27.55;50.82
26436;BME280;15351;52.408;16.826;2023-07-13T10:28:41;100577.35;;;27.51;50.11
26436;BME280;15351;52.408;16.826;2023-07-13T10:31:12;100578.86;;;27.55;49.78
26436;BME280;15351;52.408;16.826;2023-07-13T10:33:40;100576.73;;;27.51;49.27
26436;BME280;15351;52.408;16.826;2023-07-13T10:36:29;100576.04;;;27.46;48.78
26436;BME280;15351;52.408;16.826;2023-07-13T10:38:59;100575.05;;;27.39;48.40
26436;BME280;15351;52.408;16.826;2023-07-13T10:41:30;100575.84;;;27.24;48.37
26436;BME280;15351;52.408;16.826;2023-07-13T10:43:57;100572.34;;;27.11;48.75
26436;BME280;15351;52.408;16.826;2023-07-13T10:46:27;100573.27;;;27.05;48.79
26436;BME280;15351;52.408;16.826;2023-07-13T10:48:59;100574.11;;;27.01;49.49
26436;BME280;15351;52.408;16.826;2023-07-13T10:51:28;100571.45;;;26.96;49.30
26436;BME280;15351;52.408;16.826;2023-07-13T10:54:18;100569.08;;;26.95;49.52
26436;BME280;15351;52.408;16.826;2023-07-13T10:57:07;100572.29;;;26.95;49.06
26436;BME280;15351;52.408;16.826;2023-07-13T10:59:35;100570.73;;;26.93;48.76
26436;BME280;15351;52.408;16.826;2023-07-13T11:02:15;100563.53;;;26.96;49.02
26436;BME280;15351;52.408;16.826;2023-07-13T11:04:48;100567.80;;;26.93;48.50
26436;BME280;15351;52.408;16.826;2023-07-13T11:07:23;100574.05;;;26.86;48.82
26436;BME280;15351;52.408;16.826;2023-07-13T11:10:05;100575.15;;;26.79;48.78
26436;BME280;15351;52.408;16.826;2023-07-13T11:15:14;100573.87;;;26.51;49.09
26436;BME280;15351;52.408;16.826;2023-07-13T11:17:54;100573.71;;;26.41;49.42
26436;BME280;15351;52.408;16.826;2023-07-13T11:20:38;100577.00;;;26.45;49.89
26436;BME280;15351;52.408;16.826;2023-07-13T11:25:39;100576.43;;;26.87;50.23
26436;BME280;15351;52.408;16.826;2023-07-13T11:28:16;100574.45;;;27.08;49.84
26436;BME280;15351;52.408;16.826;2023-07-13T11:30:46;100573.28;;;27.20;49.11
26436;BME280;15351;52.408;16.826;2023-07-13T11:33:20;100574.57;;;27.20;48.39
26436;BME280;15351;52.408;16.826;2023-07-13T11:35:52;100571.61;;;27.10;47.90
26436;BME280;15351;52.408;16.826;2023-07-13T11:39:05;100573.61;;;27.02;47.69
26436;BME280;15351;52.408;16.826;2023-07-13T11:41:38;100567.51;;;27.01;46.36
26436;BME280;15351;52.408;16.826;2023-07-13T11:44:18;100566.63;;;27.06;46.27
26436;BME280;15351;52.408;16.826;2023-07-13T11:46:48;100565.84;;;27.13;45.91
26436;BME280;15351;52.408;16.826;2023-07-13T11:49:16;100567.38;;;27.25;45.16
26436;BME280;15351;52.408;16.826;2023-07-13T11:51:44;100567.58;;;27.35;44.26
26436;BME280;15351;52.408;16.826;2023-07-13T11:56:48;100563.71;;;27.53;41.79
26436;BME280;15351;52.408;16.826;2023-07-13T11:59:17;100562.20;;;27.59;41.90
26436;BME280;15351;52.408;16.826;2023-07-13T12:01:47;100562.42;;;27.79;42.17
26436;BME280;15351;52.408;16.826;2023-07-13T12:04:28;100560.56;;;28.06;41.55
26436;BME280;15351;52.408;16.826;2023-07-13T12:07:04;100556.14;;;28.24;39.94
26436;BME280;15351;52.408;16.826;2023-07-13T12:09:33;100560.52;;;28.39;39.66
26436;BME280;15351;52.408;16.826;2023-07-13T12:12:00;100556.67;;;28.29;39.24
26436;BME280;15351;52.408;16.826;2023-07-13T12:14:27;100554.71;;;28.21;39.54
26436;BME280;15351;52.408;16.826;2023-07-13T12:16:55;100558.64;;;28.23;39.94
26436;BME280;15351;52.408;16.826;2023-07-13T12:19:26;100562.56;;;28.41;40.96
26436;BME280;15351;52.408;16.826;2023-07-13T12:21:57;100559.55;;;28.61;40.91
26436;BME280;15351;52.408;16.826;2023-07-13T12:24:25;100560.63;;;28.82;41.05
26436;BME280;15351;52.408;16.826;2023-07-13T12:27:00;100554.61;;;29.00;40.49
26436;BME280;15351;52.408;16.826;2023-07-13T12:29:32;100560.21;;;29.07;37.78
26436;BME280;15351;52.408;16.826;2023-07-13T12:32:08;100553.83;;;28.86;36.15
26436;BME280;15351;52.408;16.826;2023-07-13T12:34:51;100557.39;;;28.59;36.45
26436;BME280;15351;52.408;16.826;2023-07-13T12:37:19;100557.64;;;28.48;36.46
26436;BME280;15351;52.408;16.826;2023-07-13T12:39:47;100558.84;;;28.31;35.81
26436;BME280;15351;52.408;16.826;2023-07-13T12:42:24;100557.59;;;28.12;35.95
26436;BME280;15351;52.408;16.826;2023-07-13T12:45:03;100560.09;;;28.01;36.16
26436;BME280;15351;52.408;16.826;2023-07-13T12:47:40;100562.66;;;27.94;36.71
26436;BME280;15351;52.408;16.826;2023-07-13T12:50:15;100554.19;;;27.92;37.35
26436;BME280;15351;52.408;16.826;2023-07-13T12:52:44;100552.77;;;27.95;37.11
26436;BME280;15351;52.408;16.826;2023-07-13T12:55:16;100553.92;;;28.00;37.07
26436;BME280;15351;52.408;16.826;2023-07-13T12:57:57;100547.70;;;28.13;36.96
26436;BME280;15351;52.408;16.826;2023-07-13T13:02:56;100543.50;;;28.22;36.73
26436;BME280;15351;52.408;16.826;2023-07-13T13:05:27;100543.39;;;28.33;36.84
26436;BME280;15351;52.408;16.826;2023-07-13T13:07:54;100543.71;;;28.46;36.69
26436;BME280;15351;52.408;16.826;2023-07-13T13:10:21;100544.45;;;28.52;35.94
26436;BME280;15351;52.408;16.826;2023-07-13T13:12:48;100545.74;;;28.56;36.07
26436;BME280;15351;52.408;16.826;2023-07-13T13:15:16;100538.92;;;28.62;35.38
26436;BME280;15351;52.408;16.826;2023-07-13T13:17:42;100535.75;;;28.71;34.75